Tiger Lily — 3EUW3 — position and weather

sailwx.info

Track history (hours):
 
Tides and Currents Weather Stations Pressure Air Temp Water Temp Dewpoint Dewpoint Depression Visibility Wind Speed Wind Dir Waves Ship Positions

Tiger Lily

Last reported at 2018-Feb-15 04:32 UTC. Time now 2018-Feb-24 19:40 UTC.
Position S 27°42' E 153°56'.
Warning: this ship's position is 9 days out of date.

Length 229 m; draft 12.9 m.

Type: Cargo ship. MMSI: 372177000.

Date/timePositionNaut miles runAvg speedWind from/ knotsBaromVisibWave heightAir tempDewpointWater temp
2018-Feb-15 04:32S 27°42' E 153°56'110.5
2018-Feb-15 04:28S 27°43' E 153°56'510.4
2018-Feb-15 04:00S 27°48' E 153°57'510.3
2018-Feb-15 03:30S 27°53' E 153°56'510.4
2018-Feb-15 03:00S 27°58' E 153°56'510.3
2018-Feb-15 02:30S 28°03' E 153°56'510.2
2018-Feb-15 02:00S 28°08' E 153°56'510.0
2018-Feb-15 01:29S 28°14' E 153°56'5 9.8
2018-Feb-15 01:00S 28°18' E 153°56'5 9.6
2018-Feb-15 00:30S 28°23' E 153°56'5 9.4
2018-Feb-15 00:00S 28°28' E 153°56'5 9.4
2018-Feb-14 23:30S 28°33' E 153°56'6 9.2
2018-Feb-14 22:51S 28°39' E 153°56'3 9.0
2018-Feb-14 22:30S 28°42' E 153°56'57 9.6
2018-Feb-14 16:36S 29°37' E 153°41'210.5
2018-Feb-14 16:27S 29°39' E 153°41'510.6
2018-Feb-14 16:00S 29°43' E 153°40'910.5
2018-Feb-14 15:09S 29°52' E 153°37'210.6
2018-Feb-14 15:00S 29°54' E 153°37'10710.2
2018-Feb-14 04:33S 31°37' E 153°06'0 9.5
2018-Feb-14 04:30S 31°38' E 153°06'5 9.4
2018-Feb-14 04:00S 31°42' E 153°05'5 9.4
2018-Feb-14 03:30S 31°47' E 153°03'5 9.2
2018-Feb-14 02:57S 31°51' E 153°01'4 9.2
2018-Feb-14 02:28S 31°56' E 152°59'3311.8
2018-Feb-13 23:38S 32°26' E 152°42'511.7
2018-Feb-13 23:13S 32°30' E 152°39'311.7
2018-Feb-13 22:57S 32°32' E 152°37'511.9
2018-Feb-13 22:30S 32°36' E 152°32'611.7
2018-Feb-13 22:00S 32°40' E 152°27'611.6
2018-Feb-13 21:30S 32°44' E 152°22'611.4
2018-Feb-13 21:00S 32°47' E 152°17'611.3
2018-Feb-13 20:30S 32°50' E 152°11'611.1
2018-Feb-13 20:00S 32°53' E 152°05'611.4
2018-Feb-13 19:30S 32°54' E 151°58'611.4
2018-Feb-13 19:00S 32°55' E 151°52'4 7.1
2018-Feb-13 18:30S 32°55' E 151°48'1 2.9
2018-Feb-13 18:00S 32°54' E 151°46'0 0.1
2018-Feb-13 17:26S 32°54' E 151°46'0 0.0
2018-Feb-13 14:41S 32°54' E 151°46'0 0.0
2018-Feb-13 14:17S 32°54' E 151°46'0 0.0
2018-Feb-13 13:59S 32°54' E 151°46'0 0.0
2018-Feb-13 12:41S 32°54' E 151°46'0 0.0
2018-Feb-13 12:05S 32°54' E 151°46'0 0.0
2018-Feb-13 11:35S 32°54' E 151°46'0 0.0
2018-Feb-13 11:23S 32°54' E 151°46'0 0.0
2018-Feb-13 10:53S 32°54' E 151°46'0 0.0
2018-Feb-13 10:23S 32°54' E 151°46'0 0.0
2018-Feb-13 08:20S 32°54' E 151°46'0 0.0
2018-Feb-13 07:50S 32°54' E 151°46'0 0.0
2018-Feb-13 07:23S 32°54' E 151°46'0 0.0
2018-Feb-13 06:56S 32°54' E 151°46'0 0.0
2018-Feb-13 05:05S 32°54' E 151°46'0 0.0
2018-Feb-13 04:59S 32°54' E 151°46'0 0.0
2018-Feb-13 04:17S 32°54' E 151°46'0 0.0
2018-Feb-13 03:59S 32°54' E 151°46'0 0.0
2018-Feb-13 03:23S 32°54' E 151°46'0 0.0
2018-Feb-13 02:47S 32°54' E 151°46'0 0.0
2018-Feb-13 02:29S 32°54' E 151°46'0 0.0
2018-Feb-13 01:11S 32°54' E 151°46'0 0.0
2018-Feb-13 00:59S 32°54' E 151°46'0 0.0
2018-Feb-12 23:23S 32°54' E 151°46'0 0.0
2018-Feb-12 22:47S 32°54' E 151°46'0 0.0
2018-Feb-12 22:29S 32°54' E 151°46'0 0.0
2018-Feb-12 21:59S 32°54' E 151°46'0 0.0
2018-Feb-12 19:41S 32°54' E 151°46'0 0.0
2018-Feb-12 19:29S 32°54' E 151°46'0 0.0
2018-Feb-12 17:20S 32°54' E 151°46'0 0.0
2018-Feb-12 16:59S 32°54' E 151°46'0 0.0
2018-Feb-12 14:05S 32°54' E 151°46'0 0.0
2018-Feb-12 13:41S 32°54' E 151°46'0 0.0
2018-Feb-12 13:29S 32°54' E 151°46'0 0.0
2018-Feb-12 12:47S 32°54' E 151°46'0 0.0
2018-Feb-12 12:29S 32°54' E 151°46'0 0.0
2018-Feb-12 11:59S 32°54' E 151°46'0 0.1
2018-Feb-12 11:29S 32°54' E 151°46'0 0.1
2018-Feb-12 10:59S 32°54' E 151°46'0 0.0
2018-Feb-12 10:29S 32°54' E 151°46'0 0.0
2018-Feb-12 09:59S 32°54' E 151°46'0 0.0
2018-Feb-12 09:23S 32°54' E 151°46'0 0.0
2018-Feb-12 08:59S 32°54' E 151°46'0 0.0
2018-Feb-12 07:59S 32°54' E 151°46'0 0.1
2018-Feb-12 07:29S 32°54' E 151°46'0 0.1
2018-Feb-12 06:59S 32°54' E 151°46'0 0.0
2018-Feb-12 06:27S 32°54' E 151°46'0 0.9
2018-Feb-12 05:57S 32°54' E 151°46'2 4.0
2018-Feb-12 05:31S 32°55' E 151°47'4 7.7
2018-Feb-12 05:00S 32°57' E 151°51'4 9.0
2018-Feb-12 04:30S 32°58' E 151°56'612.3
2018-Feb-12 04:00S 32°58' E 152°04'3 6.1
2018-Feb-12 03:31S 32°57' E 152°00'0 0.7
2018-Feb-12 03:01S 32°57' E 152°00'3 5.7
2018-Feb-12 02:30S 32°58' E 152°03'1 1.5
2018-Feb-12 02:01S 32°59' E 152°04'0 0.8
2018-Feb-12 01:30S 32°59' E 152°04'2 3.2
2018-Feb-12 01:00S 32°58' E 152°03'3 6.6
2018-Feb-12 00:30S 32°55' E 152°02'713.9
2018-Feb-12 00:00S 32°52' E 152°10'713.7
2018-Feb-11 23:31S 32°48' E 152°17'713.4
2018-Feb-11 23:01S 32°44' E 152°23'713.5
2018-Feb-11 22:30S 32°39' E 152°28'713.7
2018-Feb-11 22:00S 32°34' E 152°34'713.5
2018-Feb-11 21:30S 32°30' E 152°40'15614.7
2018-Feb-11 10:54S 30°00' E 153°32'615.5
2018-Feb-11 10:30S 29°54' E 153°33'815.3
2018-Feb-11 10:00S 29°47' E 153°34'2014.9
2018-Feb-11 08:41S 29°27' E 153°39'315.2
2018-Feb-11 08:30S 29°25' E 153°39'815.5
2018-Feb-11 08:00S 29°17' E 153°41'1216.1
2018-Feb-11 07:17S 29°06' E 153°44'516.2
2018-Feb-11 07:00S 29°01' E 153°45'816.8
2018-Feb-11 06:30S 28°53' E 153°46'916.8
2018-Feb-11 05:57S 28°44' E 153°47'716.5
2018-Feb-11 05:30S 28°36' E 153°47'816.4
2018-Feb-11 05:00S 28°28' E 153°48'816.1
2018-Feb-11 04:30S 28°20' E 153°49'815.8
2018-Feb-11 04:00S 28°13' E 153°50'815.6
2018-Feb-11 03:30S 28°05' E 153°51'815.5
2018-Feb-11 03:00S 27°57' E 153°52'815.5
2018-Feb-11 02:30S 27°49' E 153°53'816.1
2018-Feb-11 02:00S 27°41' E 153°54'917.0
2018-Feb-11 01:30S 27°33' E 153°54'917.1
2018-Feb-11 01:00S 27°24' E 153°55'916.7
2018-Feb-11 00:29S 27°15' E 153°56'17515.9
2018-Feb-10 13:25S 24°20' E 153°55'  
Track history (hours):
 
Tides and Currents Weather Stations Pressure Air Temp Water Temp Dewpoint Dewpoint Depression Visibility Wind Speed Wind Dir Waves Ship Positions

Tiger Lily

Last reported at 2018-Feb-15 04:32 UTC. Time now 2018-Feb-24 19:40 UTC.
Position S 27°42' E 153°56'.
Warning: this ship's position is 9 days out of date.

Length 229 m; draft 12.9 m.

Type: Cargo ship. MMSI: 372177000.

Date/timePositionNaut miles runAvg speedWind from/ knotsBaromVisibWave heightAir tempDewpointWater temp
2018-Feb-15 04:32S 27°42' E 153°56'110.5
2018-Feb-15 04:28S 27°43' E 153°56'510.4
2018-Feb-15 04:00S 27°48' E 153°57'510.3
2018-Feb-15 03:30S 27°53' E 153°56'510.4
2018-Feb-15 03:00S 27°58' E 153°56'510.3
2018-Feb-15 02:30S 28°03' E 153°56'510.2
2018-Feb-15 02:00S 28°08' E 153°56'510.0
2018-Feb-15 01:29S 28°14' E 153°56'5 9.8
2018-Feb-15 01:00S 28°18' E 153°56'5 9.6
2018-Feb-15 00:30S 28°23' E 153°56'5 9.4
2018-Feb-15 00:00S 28°28' E 153°56'5 9.4
2018-Feb-14 23:30S 28°33' E 153°56'6 9.2
2018-Feb-14 22:51S 28°39' E 153°56'3 9.0
2018-Feb-14 22:30S 28°42' E 153°56'57 9.6
2018-Feb-14 16:36S 29°37' E 153°41'210.5
2018-Feb-14 16:27S 29°39' E 153°41'510.6
2018-Feb-14 16:00S 29°43' E 153°40'910.5
2018-Feb-14 15:09S 29°52' E 153°37'210.6
2018-Feb-14 15:00S 29°54' E 153°37'10710.2
2018-Feb-14 04:33S 31°37' E 153°06'0 9.5
2018-Feb-14 04:30S 31°38' E 153°06'5 9.4
2018-Feb-14 04:00S 31°42' E 153°05'5 9.4
2018-Feb-14 03:30S 31°47' E 153°03'5 9.2
2018-Feb-14 02:57S 31°51' E 153°01'4 9.2
2018-Feb-14 02:28S 31°56' E 152°59'3311.8
2018-Feb-13 23:38S 32°26' E 152°42'511.7
2018-Feb-13 23:13S 32°30' E 152°39'311.7
2018-Feb-13 22:57S 32°32' E 152°37'511.9
2018-Feb-13 22:30S 32°36' E 152°32'611.7
2018-Feb-13 22:00S 32°40' E 152°27'611.6
2018-Feb-13 21:30S 32°44' E 152°22'611.4
2018-Feb-13 21:00S 32°47' E 152°17'611.3
2018-Feb-13 20:30S 32°50' E 152°11'611.1
2018-Feb-13 20:00S 32°53' E 152°05'611.4
2018-Feb-13 19:30S 32°54' E 151°58'611.4
2018-Feb-13 19:00S 32°55' E 151°52'4 7.1
2018-Feb-13 18:30S 32°55' E 151°48'1 2.9
2018-Feb-13 18:00S 32°54' E 151°46'0 0.1
2018-Feb-13 17:26S 32°54' E 151°46'0 0.0
2018-Feb-13 14:41S 32°54' E 151°46'0 0.0
2018-Feb-13 14:17S 32°54' E 151°46'0 0.0
2018-Feb-13 13:59S 32°54' E 151°46'0 0.0
2018-Feb-13 12:41S 32°54' E 151°46'0 0.0
2018-Feb-13 12:05S 32°54' E 151°46'0 0.0
2018-Feb-13 11:35S 32°54' E 151°46'0 0.0
2018-Feb-13 11:23S 32°54' E 151°46'0 0.0
2018-Feb-13 10:53S 32°54' E 151°46'0 0.0
2018-Feb-13 10:23S 32°54' E 151°46'0 0.0
2018-Feb-13 08:20S 32°54' E 151°46'0 0.0
2018-Feb-13 07:50S 32°54' E 151°46'0 0.0
2018-Feb-13 07:23S 32°54' E 151°46'0 0.0
2018-Feb-13 06:56S 32°54' E 151°46'0 0.0
2018-Feb-13 05:05S 32°54' E 151°46'0 0.0
2018-Feb-13 04:59S 32°54' E 151°46'0 0.0
2018-Feb-13 04:17S 32°54' E 151°46'0 0.0
2018-Feb-13 03:59S 32°54' E 151°46'0 0.0
2018-Feb-13 03:23S 32°54' E 151°46'0 0.0
2018-Feb-13 02:47S 32°54' E 151°46'0 0.0
2018-Feb-13 02:29S 32°54' E 151°46'0 0.0
2018-Feb-13 01:11S 32°54' E 151°46'0 0.0
2018-Feb-13 00:59S 32°54' E 151°46'0 0.0
2018-Feb-12 23:23S 32°54' E 151°46'0 0.0
2018-Feb-12 22:47S 32°54' E 151°46'0 0.0
2018-Feb-12 22:29S 32°54' E 151°46'0 0.0
2018-Feb-12 21:59S 32°54' E 151°46'0 0.0
2018-Feb-12 19:41S 32°54' E 151°46'0 0.0
2018-Feb-12 19:29S 32°54' E 151°46'0 0.0
2018-Feb-12 17:20S 32°54' E 151°46'0 0.0
2018-Feb-12 16:59S 32°54' E 151°46'0 0.0
2018-Feb-12 14:05S 32°54' E 151°46'0 0.0
2018-Feb-12 13:41S 32°54' E 151°46'0 0.0
2018-Feb-12 13:29S 32°54' E 151°46'0 0.0
2018-Feb-12 12:47S 32°54' E 151°46'0 0.0
2018-Feb-12 12:29S 32°54' E 151°46'0 0.0
2018-Feb-12 11:59S 32°54' E 151°46'0 0.1
2018-Feb-12 11:29S 32°54' E 151°46'0 0.1
2018-Feb-12 10:59S 32°54' E 151°46'0 0.0
2018-Feb-12 10:29S 32°54' E 151°46'0 0.0
2018-Feb-12 09:59S 32°54' E 151°46'0 0.0
2018-Feb-12 09:23S 32°54' E 151°46'0 0.0
2018-Feb-12 08:59S 32°54' E 151°46'0 0.0
2018-Feb-12 07:59S 32°54' E 151°46'0 0.1
2018-Feb-12 07:29S 32°54' E 151°46'0 0.1
2018-Feb-12 06:59S 32°54' E 151°46'0 0.0
2018-Feb-12 06:27S 32°54' E 151°46'0 0.9
2018-Feb-12 05:57S 32°54' E 151°46'2 4.0
2018-Feb-12 05:31S 32°55' E 151°47'4 7.7
2018-Feb-12 05:00S 32°57' E 151°51'4 9.0
2018-Feb-12 04:30S 32°58' E 151°56'612.3
2018-Feb-12 04:00S 32°58' E 152°04'3 6.1
2018-Feb-12 03:31S 32°57' E 152°00'0 0.7
2018-Feb-12 03:01S 32°57' E 152°00'3 5.7
2018-Feb-12 02:30S 32°58' E 152°03'1 1.5
2018-Feb-12 02:01S 32°59' E 152°04'0 0.8
2018-Feb-12 01:30S 32°59' E 152°04'2 3.2
2018-Feb-12 01:00S 32°58' E 152°03'3 6.6
2018-Feb-12 00:30S 32°55' E 152°02'713.9
2018-Feb-12 00:00S 32°52' E 152°10'713.7
2018-Feb-11 23:31S 32°48' E 152°17'713.4
2018-Feb-11 23:01S 32°44' E 152°23'713.5
2018-Feb-11 22:30S 32°39' E 152°28'713.7
2018-Feb-11 22:00S 32°34' E 152°34'713.5
2018-Feb-11 21:30S 32°30' E 152°40'15614.7
2018-Feb-11 10:54S 30°00' E 153°32'615.5
2018-Feb-11 10:30S 29°54' E 153°33'815.3
2018-Feb-11 10:00S 29°47' E 153°34'2014.9
2018-Feb-11 08:41S 29°27' E 153°39'315.2
2018-Feb-11 08:30S 29°25' E 153°39'815.5
2018-Feb-11 08:00S 29°17' E 153°41'1216.1
2018-Feb-11 07:17S 29°06' E 153°44'516.2
2018-Feb-11 07:00S 29°01' E 153°45'816.8
2018-Feb-11 06:30S 28°53' E 153°46'916.8
2018-Feb-11 05:57S 28°44' E 153°47'716.5
2018-Feb-11 05:30S 28°36' E 153°47'816.4
2018-Feb-11 05:00S 28°28' E 153°48'816.1
2018-Feb-11 04:30S 28°20' E 153°49'815.8
2018-Feb-11 04:00S 28°13' E 153°50'815.6
2018-Feb-11 03:30S 28°05' E 153°51'815.5
2018-Feb-11 03:00S 27°57' E 153°52'815.5
2018-Feb-11 02:30S 27°49' E 153°53'816.1
2018-Feb-11 02:00S 27°41' E 153°54'917.0
2018-Feb-11 01:30S 27°33' E 153°54'917.1
2018-Feb-11 01:00S 27°24' E 153°55'916.7
2018-Feb-11 00:29S 27°15' E 153°56'17515.9
2018-Feb-10 13:25S 24°20' E 153°55'  

Dump ship's entire track history